Aviation Digital Data Service (ADDS)

Output produced by TAFs form (0752 UTC 25 March 2017)
found at http://www.aviationweather.gov/adds/tafs/
 
METAR text: ZYTX 250730Z 21004MPS 180V240 CAVOK 11/M08 Q1018 NOSIG
Conditions at: ZYTX (SHENYANG/TAOKIAN, CN) observed 0730 UTC 25 March 2017
Temperature: 11.0°C (52°F)
Dewpoint: -8.0°C (18°F) [RH = 25%]
Pressure (altimeter): 30.06 inches Hg (1018.0 mb)
Winds: from the SSW (210 degrees) at 9 MPH (8 knots; 4.2 m/s)
Visibility: 6 or more miles (10+ km)
Ceiling: ceiling and visibility are OK
Clouds: unknown
Weather: no significant weather observed at this time

Forecast for: ZYTX (SHENYANG/TAOKIAN, CN)
Text: TAF ZYTX 250112Z 2506/2606 30003MPS 6000 NSC TX12/2506Z TNM03/21Z
Forecast period: 0600 to 1200 UTC 25 March 2017
Forecast type: FROM: standard forecast or significant change
Winds: from the WNW (300 degrees) at 7 MPH (6 knots; 3.1 m/s)
Visibility: 4 miles (6 km)
Clouds: not forecast
Temperature: minimum -3.0°C (27°F) expected at 2100 UTC
Weather: no significant weather forecast for this period
Text: BECMG 2512/2514 20003MPS 3000 FU
Forecast period: 1200 UTC 25 March 2017 to 0600 UTC 26 March 2017
Forecast type: BECOMING: Conditions expected to become as follows by 1400 UTC 25 March 2017
Winds: from the SSW (200 degrees) at 7 MPH (6 knots; 3.1 m/s)
Visibility: 1.86 miles (2.99 km)
Weather: FU  (smoke)